createdAt,value
2018-11-10T00:01:41.228Z,27.50
2018-11-10T00:04:11.236Z,27.53
2018-11-10T00:06:41.151Z,28.73
2018-11-10T00:09:11.120Z,28.83
2018-11-10T00:11:41.460Z,29.50
2018-11-10T00:14:11.554Z,28.13
2018-11-10T00:16:41.689Z,30.10
2018-11-10T00:19:11.679Z,30.20
2018-11-10T00:21:41.742Z,29.37
2018-11-10T00:24:11.726Z,29.97
2018-11-10T00:26:41.657Z,28.13
2018-11-10T00:29:11.728Z,27.07
2018-11-10T00:31:41.755Z,27.17
2018-11-10T00:34:11.708Z,28.40
2018-11-10T00:36:41.809Z,28.67
2018-11-10T00:39:11.924Z,26.80
2018-11-10T00:41:41.938Z,25.63
2018-11-10T00:44:11.926Z,27.10
2018-11-10T00:46:41.888Z,30.07
2018-11-10T00:49:12.024Z,29.57
2018-11-10T00:51:42.122Z,29.03
2018-11-10T00:54:12.147Z,32.03
2018-11-10T00:56:42.179Z,32.37
2018-11-10T00:59:12.197Z,32.43
2018-11-10T01:01:42.526Z,31.27
2018-11-10T01:04:13.038Z,28.53
2018-11-10T01:06:43.032Z,30.53
2018-11-10T01:09:13.070Z,30.13
2018-11-10T01:11:42.978Z,31.30
2018-11-10T01:14:13.059Z,30.50
2018-11-10T01:16:43.788Z,30.27
2018-11-10T01:19:13.747Z,31.03
2018-11-10T01:21:43.901Z,29.30
2018-11-10T01:24:13.872Z,30.27
2018-11-10T01:26:43.798Z,31.50
2018-11-10T01:29:14.698Z,30.23
2018-11-10T01:31:44.707Z,30.47
2018-11-10T01:34:14.700Z,29.90
2018-11-10T01:36:44.780Z,29.80
2018-11-10T01:39:14.635Z,28.57
2018-11-10T01:41:44.596Z,28.50
2018-11-10T01:44:14.605Z,29.17
2018-11-10T01:46:44.604Z,29.87
2018-11-10T01:49:14.736Z,30.63
2018-11-10T01:51:44.736Z,30.90
2018-11-10T01:54:15.315Z,30.27
2018-11-10T01:56:45.270Z,31.67
2018-11-10T01:59:15.320Z,32.83
2018-11-10T02:01:45.240Z,30.90
2018-11-10T02:04:15.188Z,30.50
2018-11-10T02:06:46.284Z,28.83
2018-11-10T02:09:16.132Z,30.67
2018-11-10T02:11:46.128Z,30.70
2018-11-10T02:14:16.172Z,30.17
2018-11-10T02:16:46.116Z,29.13
2018-11-10T02:19:16.155Z,30.30
2018-11-10T02:21:46.242Z,32.93
2018-11-10T02:24:16.141Z,32.20
2018-11-10T02:26:46.282Z,31.33
2018-11-10T02:29:16.271Z,32.10
2018-11-10T02:31:46.275Z,32.60
2018-11-10T02:34:16.277Z,22.73
2018-11-10T02:36:46.295Z,18.80
2018-11-10T02:39:16.296Z,21.60
2018-11-10T02:41:46.188Z,22.13
2018-11-10T02:44:16.137Z,22.40
2018-11-10T02:46:46.183Z,22.87
2018-11-10T02:49:17.200Z,25.17
2018-11-10T02:51:47.216Z,29.17
2018-11-10T02:54:17.250Z,29.47
2018-11-10T02:56:47.351Z,30.87
2018-11-10T02:59:17.354Z,31.47
2018-11-10T03:01:47.418Z,30.07
2018-11-10T03:04:17.511Z,28.87
2018-11-10T03:06:47.530Z,28.87
2018-11-10T03:09:17.475Z,28.90
2018-11-10T03:11:47.520Z,27.80
2018-11-10T03:14:19.451Z,29.17
2018-11-10T03:16:50.449Z,28.00
2018-11-10T03:19:20.292Z,28.33
2018-11-10T03:21:50.304Z,27.53
2018-11-10T03:24:20.178Z,27.57
2018-11-10T03:26:50.201Z,26.53
2018-11-10T03:29:20.214Z,26.53
2018-11-10T03:31:50.275Z,27.00
2018-11-10T03:34:20.211Z,24.40
2018-11-10T03:36:50.137Z,25.83
2018-11-10T03:39:20.029Z,26.20
2018-11-10T03:41:49.981Z,26.20
2018-11-10T03:44:19.854Z,26.73
2018-11-10T03:46:49.892Z,25.17
2018-11-10T03:49:19.874Z,25.93
2018-11-10T03:51:49.857Z,25.53
2018-11-10T03:54:19.819Z,25.80
2018-11-10T03:56:49.820Z,23.53
2018-11-10T03:59:20.098Z,23.93
2018-11-10T04:01:50.233Z,25.70
2018-11-10T04:04:20.217Z,25.47
2018-11-10T04:06:50.247Z,22.83
2018-11-10T04:09:20.123Z,20.90
2018-11-10T04:11:50.075Z,22.53
2018-11-10T04:14:20.184Z,21.73
2018-11-10T04:16:50.217Z,23.20
2018-11-10T04:19:20.208Z,23.00
2018-11-10T04:21:50.219Z,21.40
2018-11-10T04:24:20.192Z,22.43
2018-11-10T04:26:50.170Z,21.13
2018-11-10T04:29:20.178Z,22.83
2018-11-10T04:31:50.221Z,21.90
2018-11-10T04:34:20.306Z,22.00
2018-11-10T04:36:50.230Z,21.10
2018-11-10T04:39:20.300Z,21.60
2018-11-10T04:41:50.825Z,21.63
2018-11-10T04:44:20.908Z,22.23
2018-11-10T04:46:50.874Z,22.23
2018-11-10T04:49:20.744Z,22.80
2018-11-10T04:51:50.784Z,21.80
2018-11-10T04:54:20.792Z,23.17
2018-11-10T04:56:50.915Z,21.90
2018-11-10T04:59:20.855Z,23.10
2018-11-10T05:01:50.729Z,22.60
2018-11-10T05:04:20.781Z,23.07
2018-11-10T05:06:50.738Z,21.80
2018-11-10T05:09:20.676Z,22.43
2018-11-10T05:11:50.668Z,23.47
2018-11-10T05:14:20.523Z,21.20
2018-11-10T05:16:50.605Z,20.53
2018-11-10T05:19:20.614Z,20.67
2018-11-10T05:21:50.574Z,18.87
2018-11-10T05:24:20.565Z,19.53
2018-11-10T05:26:50.682Z,19.40
2018-11-10T05:29:20.683Z,21.63
2018-11-10T05:31:50.704Z,20.77
2018-11-10T05:34:20.865Z,22.03
2018-11-10T05:36:50.853Z,21.53
2018-11-10T05:39:20.757Z,20.73
2018-11-10T05:41:50.703Z,19.83
2018-11-10T05:44:20.674Z,20.17
2018-11-10T05:46:50.722Z,20.33
2018-11-10T05:49:20.749Z,22.07
2018-11-10T05:51:51.510Z,20.17
2018-11-10T05:54:22.196Z,21.67
2018-11-10T05:56:52.178Z,20.60
2018-11-10T05:59:22.051Z,19.20
2018-11-10T06:01:52.074Z,20.50
2018-11-10T06:04:22.144Z,20.30
2018-11-10T06:06:52.131Z,21.07
2018-11-10T06:09:22.414Z,20.37
2018-11-10T06:11:55.017Z,20.13
2018-11-10T06:14:25.605Z,19.70
2018-11-10T06:16:55.592Z,19.77
2018-11-10T06:19:25.938Z,20.47
2018-11-10T06:21:55.961Z,19.63
2018-11-10T06:24:25.902Z,20.93
2018-11-10T06:26:55.825Z,19.33
2018-11-10T06:29:25.978Z,19.67
2018-11-10T06:31:55.949Z,18.40
2018-11-10T06:34:25.926Z,17.90
2018-11-10T06:36:56.006Z,19.00
2018-11-10T06:39:25.884Z,19.80
2018-11-10T06:41:55.845Z,18.03
2018-11-10T06:44:25.783Z,18.87
2018-11-10T06:46:55.778Z,19.17
2018-11-10T06:49:25.752Z,18.13
2018-11-10T06:51:55.740Z,17.87
2018-11-10T06:54:25.758Z,17.07
2018-11-10T06:56:55.778Z,17.80
2018-11-10T06:59:25.695Z,15.50
2018-11-10T07:01:55.666Z,17.40
2018-11-10T07:04:25.655Z,24.07
2018-11-10T07:06:55.527Z,17.77
2018-11-10T07:09:25.595Z,33.33
2018-11-10T07:11:55.483Z,29.33
2018-11-10T07:14:25.435Z,22.17
2018-11-10T07:16:55.455Z,18.53
2018-11-10T07:19:25.441Z,16.77
2018-11-10T07:21:55.449Z,15.97
2018-11-10T07:24:25.464Z,16.17
2018-11-10T07:26:55.359Z,17.47
2018-11-10T07:29:25.312Z,16.57
2018-11-10T07:31:55.280Z,17.93
2018-11-10T07:34:25.322Z,17.53
2018-11-10T07:36:55.392Z,17.17
2018-11-10T07:39:25.390Z,18.00
2018-11-10T07:41:55.490Z,18.60
2018-11-10T07:44:25.902Z,16.43
2018-11-10T07:46:55.961Z,17.50
2018-11-10T07:49:26.217Z,17.63
2018-11-10T07:51:56.311Z,17.70
2018-11-10T07:54:26.322Z,16.43
2018-11-10T07:56:56.308Z,15.40
2018-11-10T07:59:26.291Z,16.17
2018-11-10T08:01:57.104Z,16.13
2018-11-10T08:04:27.148Z,16.37
2018-11-10T08:06:57.094Z,15.73
2018-11-10T08:09:27.056Z,18.20
2018-11-10T08:11:57.004Z,16.10
2018-11-10T08:14:26.967Z,15.63
2018-11-10T08:16:56.940Z,17.50
2018-11-10T08:19:26.867Z,19.23
2018-11-10T08:21:56.954Z,17.70
2018-11-10T08:24:27.606Z,19.93
2018-11-10T08:26:57.537Z,22.17
2018-11-10T08:29:27.516Z,17.93
2018-11-10T08:31:57.462Z,20.00
2018-11-10T08:34:27.403Z,17.20
2018-11-10T08:36:57.371Z,17.83
2018-11-10T08:39:27.334Z,18.00
2018-11-10T08:41:57.369Z,17.37
2018-11-10T08:44:27.458Z,16.47
2018-11-10T08:46:58.183Z,17.87
2018-11-10T08:49:28.302Z,18.23
2018-11-10T08:51:58.265Z,18.63
2018-11-10T08:54:28.395Z,18.07
2018-11-10T08:57:00.357Z,18.30
2018-11-10T08:59:33.454Z,17.23
2018-11-10T09:02:20.805Z,16.57
2018-11-10T09:04:51.828Z,17.03
2018-11-10T09:07:21.922Z,18.97
2018-11-10T09:09:52.062Z,21.83
2018-11-10T09:12:22.132Z,17.57
2018-11-10T09:14:52.090Z,17.07
2018-11-10T09:17:22.447Z,16.47
2018-11-10T09:19:52.404Z,17.33
2018-11-10T09:22:24.067Z,18.07
2018-11-10T09:24:54.345Z,17.00
2018-11-10T09:27:24.411Z,18.00
2018-11-10T09:29:55.601Z,18.53
2018-11-10T09:32:25.967Z,17.17
2018-11-10T09:34:56.005Z,16.90
2018-11-10T09:37:26.237Z,16.10
2018-11-10T09:39:56.205Z,16.43
2018-11-10T09:42:26.483Z,16.80
2018-11-10T09:44:56.373Z,14.60
2018-11-10T09:47:26.276Z,14.30
2018-11-10T09:49:56.281Z,12.77
2018-11-10T09:52:26.331Z,13.20
2018-11-10T09:54:57.862Z,13.03
2018-11-10T09:57:28.649Z,12.13
2018-11-10T09:59:58.740Z,11.83
2018-11-10T10:02:29.128Z,12.27
2018-11-10T10:04:58.715Z,11.10
2018-11-10T10:07:28.725Z,10.50
2018-11-10T10:09:58.805Z,10.83
2018-11-10T10:12:29.055Z,9.60
2018-11-10T10:14:58.997Z,9.80
2018-11-10T10:17:29.057Z,10.30
2018-11-10T10:19:59.139Z,9.20
2018-11-10T10:22:29.017Z,9.83
2018-11-10T10:24:59.242Z,12.00
2018-11-10T10:27:29.253Z,10.30
2018-11-10T10:29:59.269Z,9.50
2018-11-10T10:32:29.242Z,9.67
2018-11-10T10:35:00.302Z,8.87
2018-11-10T10:37:30.220Z,9.30
2018-11-10T10:40:00.194Z,9.43
2018-11-10T10:42:30.111Z,8.80
2018-11-10T10:45:00.088Z,11.73
2018-11-10T10:47:30.131Z,10.07
2018-11-10T10:50:00.335Z,8.23
2018-11-10T10:52:30.406Z,8.50
2018-11-10T10:55:02.008Z,8.73
2018-11-10T10:57:32.963Z,8.90
2018-11-10T11:00:03.040Z,8.67
2018-11-10T11:02:38.370Z,7.57
2018-11-10T11:05:15.908Z,8.00
2018-11-10T11:07:46.022Z,7.73
2018-11-10T11:10:16.849Z,7.60
2018-11-10T11:12:47.111Z,6.97
2018-11-10T11:15:17.132Z,7.17
2018-11-10T11:17:48.123Z,6.50
2018-11-10T11:20:18.670Z,7.70
2018-11-10T11:22:53.329Z,7.23
2018-11-10T11:25:23.676Z,6.50
2018-11-10T11:27:53.787Z,6.60
2018-11-10T11:30:23.899Z,6.07
2018-11-10T11:32:54.657Z,6.00
2018-11-10T11:35:24.728Z,6.27
2018-11-10T11:37:54.783Z,5.80
2018-11-10T11:40:24.775Z,5.23
2018-11-10T11:42:54.796Z,4.63
2018-11-10T11:45:27.186Z,4.87
2018-11-10T11:47:57.119Z,4.20
2018-11-10T11:50:27.525Z,4.30
2018-11-10T11:52:57.717Z,4.00
2018-11-10T11:55:31.164Z,4.43
2018-11-10T11:58:02.837Z,4.70
2018-11-10T12:00:33.540Z,4.47
2018-11-10T12:03:03.570Z,4.40
2018-11-10T12:05:33.608Z,4.10
2018-11-10T12:08:04.246Z,4.17
2018-11-10T12:10:34.559Z,4.40
2018-11-10T12:13:04.487Z,3.70
2018-11-10T12:15:34.547Z,4.70
2018-11-10T12:18:04.871Z,3.77
2018-11-10T12:20:34.886Z,4.10
2018-11-10T12:23:07.018Z,3.70
2018-11-10T12:25:37.507Z,3.30
2018-11-10T12:28:07.660Z,3.33
2018-11-10T12:30:37.660Z,3.20
2018-11-10T12:33:08.060Z,4.07
2018-11-10T12:35:38.369Z,3.70
2018-11-10T12:38:08.488Z,3.47
2018-11-10T12:40:38.392Z,3.47
2018-11-10T12:43:08.352Z,3.50
2018-11-10T12:45:38.402Z,3.67
2018-11-10T12:48:08.838Z,3.10
2018-11-10T12:50:39.936Z,3.40
2018-11-10T12:53:10.326Z,4.10
2018-11-10T12:55:44.404Z,3.77
2018-11-10T12:58:14.454Z,3.77
2018-11-10T13:00:44.469Z,4.13
2018-11-10T13:03:14.418Z,3.60
2018-11-10T13:05:47.247Z,4.07
2018-11-10T13:08:20.724Z,4.27
2018-11-10T13:10:51.895Z,3.63
2018-11-10T13:13:26.218Z,4.70
2018-11-10T13:15:56.149Z,5.57
2018-11-10T13:18:26.145Z,5.63
2018-11-10T13:20:56.119Z,6.13
2018-11-10T13:23:26.167Z,6.80
2018-11-10T13:25:56.948Z,6.20
2018-11-10T13:28:27.116Z,5.73
2018-11-10T13:30:57.173Z,6.63
2018-11-10T13:33:27.202Z,6.03
2018-11-10T13:35:57.185Z,6.93
2018-11-10T13:38:27.112Z,4.23
2018-11-10T13:40:57.160Z,6.20
2018-11-10T13:43:27.139Z,3.93
2018-11-10T13:45:57.209Z,5.70
2018-11-10T13:48:27.244Z,2.77
2018-11-10T13:50:58.445Z,3.50
2018-11-10T13:53:28.303Z,3.20
2018-11-10T13:55:58.379Z,2.70
2018-11-10T13:58:28.437Z,2.63
2018-11-10T14:00:58.414Z,1.73
2018-11-10T14:03:28.309Z,2.10
2018-11-10T14:05:58.408Z,2.10
2018-11-10T14:08:28.355Z,1.97
2018-11-10T14:10:58.368Z,1.80
2018-11-10T14:13:28.432Z,2.00
2018-11-10T14:15:58.368Z,2.07
2018-11-10T14:18:28.357Z,2.33
2018-11-10T14:20:58.319Z,1.97
2018-11-10T14:23:28.260Z,3.37
2018-11-10T14:25:58.227Z,6.80
2018-11-10T14:28:28.175Z,5.83
2018-11-10T14:30:58.154Z,9.70
2018-11-10T14:33:28.370Z,9.77
2018-11-10T14:35:58.378Z,9.07
2018-11-10T14:38:28.297Z,11.17
2018-11-10T14:40:58.327Z,11.73
2018-11-10T14:43:28.688Z,11.17
2018-11-10T14:45:58.668Z,12.30
2018-11-10T14:48:28.586Z,11.40
2018-11-10T14:50:58.571Z,12.37
2018-11-10T14:53:28.521Z,10.97
2018-11-10T14:55:58.534Z,11.13
2018-11-10T14:58:28.544Z,10.87
2018-11-10T15:00:58.542Z,11.53
2018-11-10T15:03:28.665Z,11.27
2018-11-10T15:05:58.683Z,12.37
2018-11-10T15:08:28.672Z,12.33
2018-11-10T15:10:58.645Z,12.23
2018-11-10T15:13:28.569Z,12.17
2018-11-10T15:15:58.576Z,11.97
2018-11-10T15:18:28.762Z,12.20
2018-11-10T15:20:58.653Z,11.60
2018-11-10T15:23:28.617Z,12.83
2018-11-10T15:25:58.601Z,12.13
2018-11-10T15:28:28.586Z,13.30
2018-11-10T15:30:58.511Z,12.13
2018-11-10T15:33:28.518Z,12.17
2018-11-10T15:35:58.438Z,11.90
2018-11-10T15:38:28.537Z,11.50
2018-11-10T15:40:58.572Z,11.33
2018-11-10T15:43:28.612Z,12.10
2018-11-10T15:45:58.535Z,11.80
2018-11-10T15:48:28.428Z,11.50
2018-11-10T15:50:58.319Z,11.53
2018-11-10T15:53:28.369Z,10.93
2018-11-10T15:55:58.405Z,10.10
2018-11-10T15:58:28.376Z,11.20
2018-11-10T16:00:58.559Z,10.37
2018-11-10T16:03:28.579Z,10.30
2018-11-10T16:05:58.658Z,9.80
2018-11-10T16:08:28.876Z,10.23
2018-11-10T16:10:58.961Z,11.20
2018-11-10T16:13:28.914Z,11.13
2018-11-10T16:15:58.932Z,8.70
2018-11-10T16:18:28.965Z,9.17
2018-11-10T16:20:59.012Z,9.07
2018-11-10T16:23:28.948Z,8.63
2018-11-10T16:25:59.004Z,8.50
2018-11-10T16:28:29.023Z,8.73
2018-11-10T16:30:58.914Z,7.80
2018-11-10T16:33:28.762Z,7.97
2018-11-10T16:35:58.867Z,7.23
2018-11-10T16:38:28.814Z,7.03
2018-11-10T16:40:58.861Z,7.60
2018-11-10T16:43:28.861Z,7.97
2018-11-10T16:45:59.071Z,8.13
2018-11-10T16:48:29.142Z,7.93
2018-11-10T16:50:59.213Z,7.90
2018-11-10T16:53:31.228Z,7.40
2018-11-10T16:56:01.252Z,8.73
2018-11-10T16:58:32.256Z,9.27
2018-11-10T17:01:02.269Z,9.60
2018-11-10T17:03:32.363Z,9.30
2018-11-10T17:06:02.365Z,9.77
2018-11-10T17:08:32.488Z,11.77
2018-11-10T17:11:02.487Z,11.40
2018-11-10T17:13:32.523Z,11.17
2018-11-10T17:16:02.362Z,10.27
2018-11-10T17:18:32.306Z,10.67
2018-11-10T17:21:02.241Z,9.80
2018-11-10T17:23:32.326Z,10.27
2018-11-10T17:26:02.884Z,11.03
2018-11-10T17:28:32.988Z,10.50
2018-11-10T17:31:03.149Z,11.40
2018-11-10T17:33:33.160Z,11.37
2018-11-10T17:36:03.210Z,14.10
2018-11-10T17:38:33.286Z,11.60
2018-11-10T17:41:03.222Z,11.53
2018-11-10T17:43:33.175Z,11.60
2018-11-10T17:46:03.186Z,12.43
2018-11-10T17:48:33.387Z,11.87
2018-11-10T17:51:03.340Z,10.80
2018-11-10T17:53:33.347Z,11.37
2018-11-10T17:56:03.350Z,11.77
2018-11-10T17:58:33.316Z,9.87
2018-11-10T18:01:03.218Z,10.20
2018-11-10T18:03:33.451Z,10.67
2018-11-10T18:06:03.689Z,9.30
2018-11-10T18:08:33.666Z,10.50
2018-11-10T18:11:03.568Z,9.97
2018-11-10T18:13:33.542Z,14.97
2018-11-10T18:16:03.680Z,13.67
2018-11-10T18:18:33.837Z,11.77
2018-11-10T18:21:03.867Z,11.60
2018-11-10T18:23:33.967Z,11.33
2018-11-10T18:26:04.030Z,11.70
2018-11-10T18:28:34.049Z,12.60
2018-11-10T18:31:05.222Z,11.23
2018-11-10T18:33:35.324Z,11.23
2018-11-10T18:36:05.511Z,11.90
2018-11-10T18:38:35.562Z,11.83
2018-11-10T18:41:05.634Z,11.40
2018-11-10T18:43:35.646Z,11.60
2018-11-10T18:46:05.922Z,11.80
2018-11-10T18:48:36.918Z,12.43
2018-11-10T18:51:07.015Z,14.63
2018-11-10T18:53:37.382Z,17.93
2018-11-10T18:56:07.622Z,20.27
2018-11-10T18:58:37.632Z,17.50
2018-11-10T19:01:07.759Z,16.53
2018-11-10T19:03:37.712Z,16.13
2018-11-10T19:06:08.023Z,17.47
2018-11-10T19:08:38.085Z,16.57
2018-11-10T19:11:09.229Z,14.80
2018-11-10T19:13:39.375Z,16.67
2018-11-10T19:16:10.561Z,16.23
2018-11-10T19:18:40.996Z,15.50
2018-11-10T19:21:11.410Z,17.33
2018-11-10T19:23:42.287Z,16.90
2018-11-10T19:26:12.718Z,17.27
2018-11-10T19:28:43.805Z,17.17
2018-11-10T19:31:14.114Z,15.50
2018-11-10T19:33:44.743Z,15.97
2018-11-10T19:36:14.690Z,15.87
2018-11-10T19:38:44.672Z,16.07
2018-11-10T19:41:14.683Z,15.80
2018-11-10T19:43:44.678Z,17.13
2018-11-10T19:46:14.714Z,16.30
2018-11-10T19:48:44.605Z,16.27
2018-11-10T19:51:15.996Z,16.83
2018-11-10T19:53:45.948Z,19.93
2018-11-10T19:56:17.862Z,20.27
2018-11-10T19:58:47.830Z,18.40
2018-11-10T20:01:17.825Z,18.57
2018-11-10T20:03:47.929Z,18.80
2018-11-10T20:06:17.888Z,18.87
2018-11-10T20:08:47.836Z,18.33
2018-11-10T20:11:17.798Z,19.23
2018-11-10T20:13:47.684Z,20.87
2018-11-10T20:16:17.662Z,22.53
2018-11-10T20:18:47.608Z,22.67
2018-11-10T20:21:17.606Z,21.60
2018-11-10T20:23:47.664Z,20.23
2018-11-10T20:26:17.597Z,20.20
2018-11-10T20:28:47.489Z,19.40
2018-11-10T20:31:17.593Z,19.93
2018-11-10T20:33:47.496Z,19.73
2018-11-10T20:36:17.494Z,19.57
2018-11-10T20:38:47.591Z,20.27
2018-11-10T20:41:17.562Z,19.60
2018-11-10T20:43:47.515Z,20.00
2018-11-10T20:46:17.556Z,19.57
2018-11-10T20:48:47.589Z,20.23
2018-11-10T20:51:17.663Z,18.47
2018-11-10T20:53:47.594Z,18.47
2018-11-10T20:56:17.480Z,18.00
2018-11-10T20:58:47.414Z,18.23
2018-11-10T21:01:18.140Z,18.67
2018-11-10T21:03:48.076Z,16.27
2018-11-10T21:06:18.152Z,15.07
2018-11-10T21:08:48.183Z,15.17
2018-11-10T21:11:18.531Z,15.30
2018-11-10T21:13:48.528Z,14.17
2018-11-10T21:16:18.483Z,9.90
2018-11-10T21:18:48.377Z,11.50
2018-11-10T21:21:18.386Z,10.53
2018-11-10T21:23:48.539Z,9.57
2018-11-10T21:26:18.488Z,10.03
2018-11-10T21:28:48.668Z,10.10
2018-11-10T21:31:18.801Z,11.87
2018-11-10T21:33:48.864Z,9.13
2018-11-10T21:36:18.770Z,8.47
2018-11-10T21:38:48.829Z,8.93
2018-11-10T21:41:19.815Z,12.23
2018-11-10T21:43:49.828Z,13.57
2018-11-10T21:46:20.868Z,17.40
2018-11-10T21:48:50.808Z,16.10
2018-11-10T21:51:20.828Z,16.10
2018-11-10T21:53:51.211Z,16.10
2018-11-10T21:56:21.251Z,16.03
2018-11-10T21:58:51.442Z,16.60
2018-11-10T22:01:21.400Z,16.87
2018-11-10T22:03:51.847Z,15.60
2018-11-10T22:06:21.981Z,15.17
2018-11-10T22:08:52.178Z,14.00
2018-11-10T22:11:22.170Z,12.30
2018-11-10T22:13:52.290Z,10.93
2018-11-10T22:16:22.353Z,14.17
2018-11-10T22:18:52.419Z,16.13
2018-11-10T22:21:22.336Z,11.63
2018-11-10T22:23:52.590Z,10.03
2018-11-10T22:26:22.582Z,8.57
2018-11-10T22:28:52.616Z,10.47
2018-11-10T22:31:23.071Z,8.70
2018-11-10T22:33:53.875Z,8.80
2018-11-10T22:36:23.790Z,8.83
2018-11-10T22:38:54.132Z,9.17
2018-11-10T22:41:24.096Z,7.70
2018-11-10T22:43:54.384Z,8.20
2018-11-10T22:46:24.421Z,8.00
2018-11-10T22:48:54.444Z,9.27
2018-11-10T22:51:24.479Z,8.63
2018-11-10T22:53:55.148Z,8.67
2018-11-10T22:56:25.281Z,8.10
2018-11-10T22:58:55.813Z,8.23
2018-11-10T23:01:32.833Z,6.87
2018-11-10T23:04:02.968Z,9.20
2018-11-10T23:06:33.001Z,9.03
2018-11-10T23:09:03.732Z,7.80
2018-11-10T23:11:33.799Z,8.37
2018-11-10T23:14:04.031Z,8.30
2018-11-10T23:16:33.973Z,9.63
2018-11-10T23:19:04.714Z,8.30
2018-11-10T23:21:34.809Z,7.87
2018-11-10T23:24:05.473Z,9.23
2018-11-10T23:26:35.583Z,9.57
2018-11-10T23:29:05.949Z,9.97
2018-11-10T23:31:36.024Z,9.93
2018-11-10T23:34:06.388Z,9.73
2018-11-10T23:36:43.025Z,10.13
2018-11-10T23:39:17.375Z,9.97
2018-11-10T23:41:54.061Z,9.50
2018-11-10T23:44:25.268Z,11.03
2018-11-10T23:46:59.126Z,10.70
2018-11-10T23:49:29.789Z,12.17
2018-11-10T23:52:00.163Z,11.90
2018-11-10T23:54:30.118Z,11.60
2018-11-10T23:57:00.232Z,12.90
2018-11-10T23:59:30.284Z,12.70
